sensor_id;sensor_type;location;lat;lon;timestamp;pressure;altitude;pressure_sealevel;temperature;humidity
61128;BME280;47013;42.664;23.242;2023-02-18T00:01:19;94726.75;;;7.47;42.54
61128;BME280;47013;42.664;23.242;2023-02-18T00:03:45;94727.91;;;7.46;42.47
61128;BME280;47013;42.664;23.242;2023-02-18T00:08:41;94717.69;;;7.62;41.55
61128;BME280;47013;42.664;23.242;2023-02-18T00:11:07;94715.09;;;7.69;41.25
61128;BME280;47013;42.664;23.242;2023-02-18T00:13:33;94702.84;;;7.79;41.86
61128;BME280;47013;42.664;23.242;2023-02-18T00:16:08;94699.34;;;7.75;41.33
61128;BME280;47013;42.664;23.242;2023-02-18T00:18:33;94702.44;;;7.77;41.33
61128;BME280;47013;42.664;23.242;2023-02-18T00:20:59;94691.19;;;7.72;41.03
61128;BME280;47013;42.664;23.242;2023-02-18T00:23:25;94691.59;;;7.74;41.46
61128;BME280;47013;42.664;23.242;2023-02-18T00:26:09;94688.38;;;7.61;43.38
61128;BME280;47013;42.664;23.242;2023-02-18T00:28:35;94691.53;;;7.06;45.44
61128;BME280;47013;42.664;23.242;2023-02-18T00:31:09;94684.94;;;6.28;47.63
61128;BME280;47013;42.664;23.242;2023-02-18T00:33:35;94687.28;;;5.87;49.60
61128;BME280;47013;42.664;23.242;2023-02-18T00:36:06;94687.34;;;5.33;51.45
61128;BME280;47013;42.664;23.242;2023-02-18T00:38:32;94676.28;;;4.99;52.69
61128;BME280;47013;42.664;23.242;2023-02-18T00:40:57;94672.69;;;4.76;53.31
61128;BME280;47013;42.664;23.242;2023-02-18T00:43:23;94673.34;;;4.69;53.26
61128;BME280;47013;42.664;23.242;2023-02-18T00:45:48;94686.56;;;4.78;53.44
61128;BME280;47013;42.664;23.242;2023-02-18T00:48:14;94685.69;;;4.74;53.97
61128;BME280;47013;42.664;23.242;2023-02-18T00:50:39;94680.63;;;4.69;53.76
61128;BME280;47013;42.664;23.242;2023-02-18T00:53:04;94687.84;;;4.68;54.50
61128;BME280;47013;42.664;23.242;2023-02-18T00:55:30;94675.66;;;4.71;54.58
61128;BME280;47013;42.664;23.242;2023-02-18T00:57:55;94670.97;;;4.68;54.30
61128;BME280;47013;42.664;23.242;2023-02-18T01:00:21;94678.69;;;4.69;55.10
61128;BME280;47013;42.664;23.242;2023-02-18T01:02:47;94684.06;;;4.69;55.18
61128;BME280;47013;42.664;23.242;2023-02-18T01:05:12;94679.47;;;4.70;54.74
61128;BME280;47013;42.664;23.242;2023-02-18T01:07:38;94680.00;;;4.60;55.20
61128;BME280;47013;42.664;23.242;2023-02-18T01:10:04;94676.13;;;4.57;55.13
61128;BME280;47013;42.664;23.242;2023-02-18T01:12:29;94670.66;;;4.38;55.91
61128;BME280;47013;42.664;23.242;2023-02-18T01:14:54;94677.34;;;4.12;56.21
61128;BME280;47013;42.664;23.242;2023-02-18T01:17:20;94661.50;;;4.23;56.24
61128;BME280;47013;42.664;23.242;2023-02-18T01:19:45;94672.22;;;4.23;56.58
61128;BME280;47013;42.664;23.242;2023-02-18T01:22:10;94666.16;;;4.26;56.97
61128;BME280;47013;42.664;23.242;2023-02-18T01:24:36;94669.97;;;4.25;56.83
61128;BME280;47013;42.664;23.242;2023-02-18T01:27:03;94664.78;;;4.17;56.93
61128;BME280;47013;42.664;23.242;2023-02-18T01:29:28;94654.75;;;4.13;57.39
61128;BME280;47013;42.664;23.242;2023-02-18T01:31:53;94666.34;;;4.18;57.20
61128;BME280;47013;42.664;23.242;2023-02-18T01:34:19;94652.59;;;4.19;57.20
61128;BME280;47013;42.664;23.242;2023-02-18T01:36:44;94669.56;;;4.23;57.00
61128;BME280;47013;42.664;23.242;2023-02-18T01:39:10;94666.53;;;4.09;57.28
61128;BME280;47013;42.664;23.242;2023-02-18T01:41:36;94669.38;;;4.00;57.66
61128;BME280;47013;42.664;23.242;2023-02-18T01:44:20;94671.53;;;3.95;57.53
61128;BME280;47013;42.664;23.242;2023-02-18T01:46:46;94675.00;;;3.95;57.75
61128;BME280;47013;42.664;23.242;2023-02-18T01:49:16;94687.03;;;4.01;57.45
61128;BME280;47013;42.664;23.242;2023-02-18T01:51:54;94680.09;;;4.00;57.53
61128;BME280;47013;42.664;23.242;2023-02-18T01:54:32;94687.78;;;4.02;57.87
61128;BME280;47013;42.664;23.242;2023-02-18T01:57:17;94674.13;;;3.91;58.16
61128;BME280;47013;42.664;23.242;2023-02-18T01:59:53;94688.75;;;3.94;58.64
61128;BME280;47013;42.664;23.242;2023-02-18T02:02:23;94691.59;;;4.01;58.96
61128;BME280;47013;42.664;23.242;2023-02-18T02:04:51;94704.25;;;4.00;58.66
61128;BME280;47013;42.664;23.242;2023-02-18T02:07:17;94704.66;;;4.02;58.94
61128;BME280;47013;42.664;23.242;2023-02-18T02:09:44;94697.75;;;4.01;59.11
61128;BME280;47013;42.664;23.242;2023-02-18T02:17:45;94688.47;;;3.83;58.94
61128;BME280;47013;42.664;23.242;2023-02-18T02:20:23;94675.41;;;3.81;58.82
61128;BME280;47013;42.664;23.242;2023-02-18T02:36:02;94659.50;;;3.45;60.84
61128;BME280;47013;42.664;23.242;2023-02-18T02:46:10;94655.34;;;3.19;61.96
61128;BME280;47013;42.664;23.242;2023-02-18T02:48:44;94649.34;;;3.10;62.23
61128;BME280;47013;42.664;23.242;2023-02-18T02:51:17;94645.38;;;3.04;63.05
61128;BME280;47013;42.664;23.242;2023-02-18T02:53:44;94638.00;;;3.01;63.19
61128;BME280;47013;42.664;23.242;2023-02-18T02:56:17;94640.34;;;3.03;63.01
61128;BME280;47013;42.664;23.242;2023-02-18T02:58:44;94646.28;;;2.84;63.56
61128;BME280;47013;42.664;23.242;2023-02-18T03:12:57;94684.88;;;3.07;63.11
61128;BME280;47013;42.664;23.242;2023-02-18T03:15:41;94682.19;;;3.07;63.28
61128;BME280;47013;42.664;23.242;2023-02-18T03:20:54;94687.94;;;2.81;63.97
61128;BME280;47013;42.664;23.242;2023-02-18T03:23:25;94692.16;;;2.82;63.68
61128;BME280;47013;42.664;23.242;2023-02-18T03:25:52;94683.94;;;2.75;63.99
61128;BME280;47013;42.664;23.242;2023-02-18T03:28:19;94688.81;;;2.85;62.95
61128;BME280;47013;42.664;23.242;2023-02-18T03:30:50;94688.78;;;2.97;63.13
61128;BME280;47013;42.664;23.242;2023-02-18T03:33:27;94682.88;;;3.04;62.80
61128;BME280;47013;42.664;23.242;2023-02-18T03:35:54;94686.84;;;3.10;62.26
61128;BME280;47013;42.664;23.242;2023-02-18T03:40:50;94699.81;;;3.08;62.73
61128;BME280;47013;42.664;23.242;2023-02-18T03:43:15;94698.19;;;2.79;63.83
61128;BME280;47013;42.664;23.242;2023-02-18T03:45:40;94707.56;;;2.85;64.07
61128;BME280;47013;42.664;23.242;2023-02-18T03:48:06;94708.03;;;2.75;64.45
61128;BME280;47013;42.664;23.242;2023-02-18T03:50:32;94721.63;;;2.70;64.49
61128;BME280;47013;42.664;23.242;2023-02-18T03:52:57;94725.66;;;2.76;64.56
61128;BME280;47013;42.664;23.242;2023-02-18T03:55:22;94727.75;;;2.83;64.68
61128;BME280;47013;42.664;23.242;2023-02-18T03:57:48;94736.81;;;2.78;64.92
61128;BME280;47013;42.664;23.242;2023-02-18T04:00:13;94727.56;;;2.88;64.70
61128;BME280;47013;42.664;23.242;2023-02-18T04:02:40;94729.22;;;2.80;64.48
61128;BME280;47013;42.664;23.242;2023-02-18T04:05:06;94716.28;;;2.82;64.20
61128;BME280;47013;42.664;23.242;2023-02-18T04:07:32;94696.75;;;2.82;64.43
61128;BME280;47013;42.664;23.242;2023-02-18T04:09:57;94709.91;;;2.87;64.06
61128;BME280;47013;42.664;23.242;2023-02-18T04:12:23;94698.63;;;2.81;64.21
61128;BME280;47013;42.664;23.242;2023-02-18T04:14:48;94699.66;;;2.77;64.38
61128;BME280;47013;42.664;23.242;2023-02-18T04:17:13;94700.97;;;2.83;64.30
61128;BME280;47013;42.664;23.242;2023-02-18T04:19:39;94692.38;;;2.89;63.85
61128;BME280;47013;42.664;23.242;2023-02-18T04:22:04;94692.06;;;2.91;64.32
61128;BME280;47013;42.664;23.242;2023-02-18T04:24:30;94682.03;;;2.88;63.97
61128;BME280;47013;42.664;23.242;2023-02-18T04:26:55;94676.41;;;2.93;63.49
61128;BME280;47013;42.664;23.242;2023-02-18T04:29:20;94679.31;;;3.00;61.47
61128;BME280;47013;42.664;23.242;2023-02-18T04:31:46;94666.53;;;3.09;61.93
61128;BME280;47013;42.664;23.242;2023-02-18T04:34:11;94662.47;;;3.28;58.95
61128;BME280;47013;42.664;23.242;2023-02-18T04:36:37;94647.59;;;3.58;57.56
61128;BME280;47013;42.664;23.242;2023-02-18T04:39:06;94657.00;;;3.96;55.20
61128;BME280;47013;42.664;23.242;2023-02-18T04:41:31;94665.75;;;4.24;54.56
61128;BME280;47013;42.664;23.242;2023-02-18T04:43:56;94666.16;;;4.42;53.06
61128;BME280;47013;42.664;23.242;2023-02-18T04:46:23;94667.97;;;4.69;52.76
61128;BME280;47013;42.664;23.242;2023-02-18T04:48:49;94671.81;;;4.88;50.93
61128;BME280;47013;42.664;23.242;2023-02-18T04:51:14;94679.63;;;5.12;49.49
61128;BME280;47013;42.664;23.242;2023-02-18T04:53:40;94670.09;;;5.34;48.93
61128;BME280;47013;42.664;23.242;2023-02-18T04:56:05;94672.19;;;5.44;48.31
61128;BME280;47013;42.664;23.242;2023-02-18T04:58:30;94683.53;;;5.53;50.89
61128;BME280;47013;42.664;23.242;2023-02-18T05:01:00;94687.56;;;4.89;54.68
61128;BME280;47013;42.664;23.242;2023-02-18T05:03:27;94693.06;;;4.77;55.71
61128;BME280;47013;42.664;23.242;2023-02-18T05:05:52;94697.56;;;4.73;56.15
61128;BME280;47013;42.664;23.242;2023-02-18T05:08:18;94714.94;;;4.60;56.77
61128;BME280;47013;42.664;23.242;2023-02-18T05:10:43;94721.75;;;4.10;58.52
61128;BME280;47013;42.664;23.242;2023-02-18T05:13:09;94729.00;;;3.94;59.26
61128;BME280;47013;42.664;23.242;2023-02-18T05:15:34;94745.53;;;3.96;59.65
61128;BME280;47013;42.664;23.242;2023-02-18T05:17:59;94731.13;;;3.88;59.82
61128;BME280;47013;42.664;23.242;2023-02-18T05:20:25;94714.50;;;3.67;60.77
61128;BME280;47013;42.664;23.242;2023-02-18T05:22:50;94717.41;;;3.62;61.31
61128;BME280;47013;42.664;23.242;2023-02-18T05:25:16;94696.94;;;3.41;61.68
61128;BME280;47013;42.664;23.242;2023-02-18T05:27:41;94684.50;;;3.49;61.99
61128;BME280;47013;42.664;23.242;2023-02-18T05:30:07;94688.94;;;3.57;61.64
61128;BME280;47013;42.664;23.242;2023-02-18T05:32:32;94685.81;;;3.27;61.80
61128;BME280;47013;42.664;23.242;2023-02-18T05:34:58;94686.56;;;3.40;62.27
61128;BME280;47013;42.664;23.242;2023-02-18T05:37:23;94683.38;;;3.50;61.92
61128;BME280;47013;42.664;23.242;2023-02-18T05:39:49;94678.28;;;3.61;61.26
61128;BME280;47013;42.664;23.242;2023-02-18T05:42:14;94682.66;;;3.65;61.49
61128;BME280;47013;42.664;23.242;2023-02-18T05:44:39;94672.25;;;3.36;62.28
61128;BME280;47013;42.664;23.242;2023-02-18T05:47:09;94683.66;;;3.33;63.39
61128;BME280;47013;42.664;23.242;2023-02-18T05:49:36;94685.78;;;3.39;62.94
61128;BME280;47013;42.664;23.242;2023-02-18T05:52:02;94691.56;;;3.41;62.80
61128;BME280;47013;42.664;23.242;2023-02-18T05:54:28;94687.59;;;3.23;63.00
61128;BME280;47013;42.664;23.242;2023-02-18T05:56:54;94694.81;;;3.35;63.41
61128;BME280;47013;42.664;23.242;2023-02-18T05:59:20;94697.50;;;3.35;63.04
61128;BME280;47013;42.664;23.242;2023-02-18T06:01:45;94713.81;;;3.42;61.32
61128;BME280;47013;42.664;23.242;2023-02-18T06:04:12;94728.50;;;3.48;61.41
61128;BME280;47013;42.664;23.242;2023-02-18T06:06:37;94725.78;;;3.32;62.90
61128;BME280;47013;42.664;23.242;2023-02-18T06:09:04;94725.03;;;3.19;63.58
61128;BME280;47013;42.664;23.242;2023-02-18T06:11:30;94711.50;;;3.28;63.55
61128;BME280;47013;42.664;23.242;2023-02-18T06:13:56;94719.38;;;3.37;63.56
61128;BME280;47013;42.664;23.242;2023-02-18T06:16:21;94712.16;;;3.25;63.40
61128;BME280;47013;42.664;23.242;2023-02-18T06:18:46;94710.22;;;3.38;64.07
61128;BME280;47013;42.664;23.242;2023-02-18T06:21:12;94714.31;;;3.47;63.72
61128;BME280;47013;42.664;23.242;2023-02-18T06:23:37;94708.41;;;3.54;63.99
61128;BME280;47013;42.664;23.242;2023-02-18T06:26:03;94697.06;;;3.61;62.76
61128;BME280;47013;42.664;23.242;2023-02-18T06:28:28;94706.88;;;3.69;62.78
61128;BME280;47013;42.664;23.242;2023-02-18T06:30:54;94707.06;;;3.76;62.61
61128;BME280;47013;42.664;23.242;2023-02-18T06:33:19;94693.63;;;3.76;62.92
61128;BME280;47013;42.664;23.242;2023-02-18T06:36:02;94700.06;;;3.87;61.89
61128;BME280;47013;42.664;23.242;2023-02-18T06:38:31;94705.41;;;3.71;61.60
61128;BME280;47013;42.664;23.242;2023-02-18T06:40:56;94697.44;;;3.75;62.10
61128;BME280;47013;42.664;23.242;2023-02-18T06:43:21;94692.69;;;3.68;62.56
61128;BME280;47013;42.664;23.242;2023-02-18T06:45:47;94697.72;;;3.70;62.51
61128;BME280;47013;42.664;23.242;2023-02-18T06:48:12;94697.63;;;3.66;63.34
61128;BME280;47013;42.664;23.242;2023-02-18T06:50:40;94695.38;;;3.68;60.03
61128;BME280;47013;42.664;23.242;2023-02-18T06:53:05;94686.69;;;4.19;54.07
61128;BME280;47013;42.664;23.242;2023-02-18T06:55:31;94699.22;;;4.78;57.18
61128;BME280;47013;42.664;23.242;2023-02-18T06:57:56;94693.44;;;4.60;56.75
61128;BME280;47013;42.664;23.242;2023-02-18T07:00:22;94694.06;;;4.88;51.66
61128;BME280;47013;42.664;23.242;2023-02-18T07:02:47;94677.38;;;5.53;49.11
61128;BME280;47013;42.664;23.242;2023-02-18T07:05:13;94703.00;;;6.28;45.74
61128;BME280;47013;42.664;23.242;2023-02-18T07:07:38;94693.72;;;6.48;45.09
61128;BME280;47013;42.664;23.242;2023-02-18T07:10:04;94685.84;;;6.62;45.61
61128;BME280;47013;42.664;23.242;2023-02-18T07:12:30;94685.03;;;6.85;44.30
61128;BME280;47013;42.664;23.242;2023-02-18T07:14:55;94683.31;;;6.99;44.60
61128;BME280;47013;42.664;23.242;2023-02-18T07:17:21;94671.59;;;7.15;43.53
61128;BME280;47013;42.664;23.242;2023-02-18T07:19:46;94665.19;;;7.26;43.00
61128;BME280;47013;42.664;23.242;2023-02-18T07:22:12;94661.44;;;7.34;42.48
61128;BME280;47013;42.664;23.242;2023-02-18T07:24:37;94659.69;;;7.49;42.18
61128;BME280;47013;42.664;23.242;2023-02-18T07:27:02;94643.25;;;7.61;41.49
61128;BME280;47013;42.664;23.242;2023-02-18T07:29:28;94667.75;;;7.79;40.91
61128;BME280;47013;42.664;23.242;2023-02-18T07:31:53;94652.75;;;7.82;40.59
61128;BME280;47013;42.664;23.242;2023-02-18T07:34:19;94654.72;;;7.85;40.63
61128;BME280;47013;42.664;23.242;2023-02-18T07:36:44;94653.28;;;7.94;39.99
61128;BME280;47013;42.664;23.242;2023-02-18T07:39:10;94676.97;;;8.12;39.76
61128;BME280;47013;42.664;23.242;2023-02-18T07:41:35;94685.56;;;8.24;39.31
61128;BME280;47013;42.664;23.242;2023-02-18T07:44:01;94695.41;;;8.40;41.29
61128;BME280;47013;42.664;23.242;2023-02-18T07:46:26;94709.38;;;7.78;46.84
61128;BME280;47013;42.664;23.242;2023-02-18T07:48:51;94715.56;;;7.45;47.94
61128;BME280;47013;42.664;23.242;2023-02-18T07:51:17;94724.84;;;7.21;49.09
61128;BME280;47013;42.664;23.242;2023-02-18T07:53:42;94729.06;;;7.19;49.26
61128;BME280;47013;42.664;23.242;2023-02-18T07:56:08;94728.91;;;7.08;50.10
61128;BME280;47013;42.664;23.242;2023-02-18T07:58:36;94710.13;;;7.15;49.85
61128;BME280;47013;42.664;23.242;2023-02-18T08:01:06;94724.69;;;7.10;50.34
61128;BME280;47013;42.664;23.242;2023-02-18T08:03:32;94701.31;;;7.18;49.84
61128;BME280;47013;42.664;23.242;2023-02-18T08:06:00;94706.41;;;6.97;50.06
61128;BME280;47013;42.664;23.242;2023-02-18T08:08:28;94697.78;;;6.88;50.08
61128;BME280;47013;42.664;23.242;2023-02-18T08:10:59;94704.03;;;6.92;50.75
61128;BME280;47013;42.664;23.242;2023-02-18T08:13:27;94699.53;;;7.03;50.31
61128;BME280;47013;42.664;23.242;2023-02-18T08:15:54;94705.88;;;7.14;50.45
61128;BME280;47013;42.664;23.242;2023-02-18T08:18:21;94703.28;;;7.21;50.41
61128;BME280;47013;42.664;23.242;2023-02-18T08:20:48;94703.38;;;7.28;49.49
61128;BME280;47013;42.664;23.242;2023-02-18T08:23:15;94702.13;;;7.22;49.90
61128;BME280;47013;42.664;23.242;2023-02-18T08:25:44;94691.53;;;7.36;48.95
61128;BME280;47013;42.664;23.242;2023-02-18T08:28:10;94672.03;;;7.17;49.68
61128;BME280;47013;42.664;23.242;2023-02-18T08:30:36;94677.50;;;7.24;50.10
61128;BME280;47013;42.664;23.242;2023-02-18T08:33:01;94669.63;;;7.12;50.31
61128;BME280;47013;42.664;23.242;2023-02-18T08:35:26;94659.41;;;7.24;50.21
61128;BME280;47013;42.664;23.242;2023-02-18T08:37:52;94668.56;;;7.50;43.24
61128;BME280;47013;42.664;23.242;2023-02-18T08:40:17;94674.53;;;7.99;41.82
61128;BME280;47013;42.664;23.242;2023-02-18T08:42:43;94665.28;;;8.38;39.73
61128;BME280;47013;42.664;23.242;2023-02-18T08:45:08;94663.28;;;8.82;39.13
61128;BME280;47013;42.664;23.242;2023-02-18T08:47:33;94673.25;;;9.33;37.22
61128;BME280;47013;42.664;23.242;2023-02-18T08:49:59;94664.47;;;9.54;37.44
61128;BME280;47013;42.664;23.242;2023-02-18T08:52:24;94669.19;;;9.75;36.52
61128;BME280;47013;42.664;23.242;2023-02-18T08:54:50;94689.22;;;9.56;41.78
61128;BME280;47013;42.664;23.242;2023-02-18T08:57:15;94690.19;;;9.23;43.19
61128;BME280;47013;42.664;23.242;2023-02-18T08:59:41;94685.53;;;9.16;44.29
61128;BME280;47013;42.664;23.242;2023-02-18T09:02:06;94699.69;;;8.96;43.91
61128;BME280;47013;42.664;23.242;2023-02-18T09:04:32;94680.69;;;8.85;43.99
61128;BME280;47013;42.664;23.242;2023-02-18T09:06:57;94695.22;;;8.63;43.19
61128;BME280;47013;42.664;23.242;2023-02-18T09:09:23;94704.06;;;8.60;44.22
61128;BME280;47013;42.664;23.242;2023-02-18T09:11:48;94708.63;;;8.52;43.56
61128;BME280;47013;42.664;23.242;2023-02-18T09:14:14;94712.59;;;8.65;43.75
61128;BME280;47013;42.664;23.242;2023-02-18T09:16:40;94694.53;;;8.73;43.56
61128;BME280;47013;42.664;23.242;2023-02-18T09:19:06;94682.50;;;8.67;43.84
61128;BME280;47013;42.664;23.242;2023-02-18T09:21:32;94693.41;;;8.81;44.44
61128;BME280;47013;42.664;23.242;2023-02-18T09:23:58;94686.25;;;9.06;44.39
61128;BME280;47013;42.664;23.242;2023-02-18T09:26:24;94690.69;;;10.66;96.61
61128;BME280;47013;42.664;23.242;2023-02-18T09:28:51;94698.41;;;11.24;50.37
61128;BME280;47013;42.664;23.242;2023-02-18T09:31:21;94683.28;;;11.12;42.32
61128;BME280;47013;42.664;23.242;2023-02-18T09:33:52;94661.19;;;11.03;41.36
61128;BME280;47013;42.664;23.242;2023-02-18T09:36:18;94652.66;;;11.05;42.86
61128;BME280;47013;42.664;23.242;2023-02-18T09:38:45;94667.03;;;10.66;41.07
61128;BME280;47013;42.664;23.242;2023-02-18T09:42:07;94663.56;;;10.62;41.88
61128;BME280;47013;42.664;23.242;2023-02-18T09:44:28;94654.25;;;10.99;34.54
61128;BME280;47013;42.664;23.242;2023-02-18T09:47:02;94647.50;;;11.53;32.13
61128;BME280;47013;42.664;23.242;2023-02-18T09:49:31;94640.34;;;11.98;32.01
61128;BME280;47013;42.664;23.242;2023-02-18T09:52:30;94643.59;;;12.34;30.90
61128;BME280;47013;42.664;23.242;2023-02-18T09:54:56;94654.03;;;12.43;30.50
61128;BME280;47013;42.664;23.242;2023-02-18T09:59:55;94634.19;;;12.46;29.77
61128;BME280;47013;42.664;23.242;2023-02-18T10:02:22;94640.47;;;12.39;29.22
61128;BME280;47013;42.664;23.242;2023-02-18T10:04:47;94628.66;;;12.60;29.37
61128;BME280;47013;42.664;23.242;2023-02-18T10:07:27;94631.16;;;12.85;28.73
61128;BME280;47013;42.664;23.242;2023-02-18T10:09:55;94624.19;;;13.25;28.76
61128;BME280;47013;42.664;23.242;2023-02-18T10:12:25;94620.88;;;13.45;27.36
61128;BME280;47013;42.664;23.242;2023-02-18T10:14:53;94628.06;;;13.62;27.00
61128;BME280;47013;42.664;23.242;2023-02-18T10:17:20;94619.00;;;13.72;26.94
61128;BME280;47013;42.664;23.242;2023-02-18T10:19:48;94623.75;;;13.95;26.78
61128;BME280;47013;42.664;23.242;2023-02-18T10:22:15;94628.75;;;14.27;26.57
61128;BME280;47013;42.664;23.242;2023-02-18T10:24:53;94635.59;;;14.66;26.77
61128;BME280;47013;42.664;23.242;2023-02-18T10:27:24;94627.00;;;14.67;25.18
61128;BME280;47013;42.664;23.242;2023-02-18T10:29:51;94616.25;;;15.03;25.08
61128;BME280;47013;42.664;23.242;2023-02-18T10:32:26;94620.25;;;15.42;25.05
61128;BME280;47013;42.664;23.242;2023-02-18T10:43:12;94611.78;;;16.12;27.63
61128;BME280;47013;42.664;23.242;2023-02-18T10:45:58;94598.84;;;16.49;23.72
61128;BME280;47013;42.664;23.242;2023-02-18T10:50:55;94596.91;;;16.82;22.76
61128;BME280;47013;42.664;23.242;2023-02-18T10:53:34;94587.16;;;16.81;22.50
61128;BME280;47013;42.664;23.242;2023-02-18T10:56:00;94580.56;;;16.95;23.18
61128;BME280;47013;42.664;23.242;2023-02-18T10:58:30;94583.47;;;16.88;22.45
61128;BME280;47013;42.664;23.242;2023-02-18T11:00:56;94577.34;;;16.67;23.49
61128;BME280;47013;42.664;23.242;2023-02-18T11:03:37;94578.47;;;16.34;23.07
61128;BME280;47013;42.664;23.242;2023-02-18T11:06:04;94567.06;;;15.67;24.14
61128;BME280;47013;42.664;23.242;2023-02-18T11:08:40;94579.09;;;15.49;24.62
61128;BME280;47013;42.664;23.242;2023-02-18T11:11:16;94568.00;;;15.96;24.44
61128;BME280;47013;42.664;23.242;2023-02-18T11:13:52;94568.84;;;15.93;23.82
61128;BME280;47013;42.664;23.242;2023-02-18T11:16:21;94563.84;;;15.72;24.28
61128;BME280;47013;42.664;23.242;2023-02-18T11:18:47;94554.50;;;15.29;25.01
61128;BME280;47013;42.664;23.242;2023-02-18T11:21:36;94549.41;;;15.51;24.78
61128;BME280;47013;42.664;23.242;2023-02-18T11:24:11;94557.88;;;15.17;24.94
61128;BME280;47013;42.664;23.242;2023-02-18T11:26:39;94543.38;;;15.40;25.00
61128;BME280;47013;42.664;23.242;2023-02-18T11:29:11;94547.28;;;15.79;25.52
61128;BME280;47013;42.664;23.242;2023-02-18T11:31:45;94529.13;;;16.05;24.84
61128;BME280;47013;42.664;23.242;2023-02-18T11:34:18;94521.53;;;16.29;24.30
61128;BME280;47013;42.664;23.242;2023-02-18T11:36:45;94512.53;;;16.12;24.19
61128;BME280;47013;42.664;23.242;2023-02-18T11:39:21;94502.47;;;16.41;24.49
61128;BME280;47013;42.664;23.242;2023-02-18T11:42:06;94506.81;;;17.00;23.85
61128;BME280;47013;42.664;23.242;2023-02-18T11:44:35;94494.78;;;16.98;23.99
61128;BME280;47013;42.664;23.242;2023-02-18T11:49:36;94491.91;;;17.72;23.65
61128;BME280;47013;42.664;23.242;2023-02-18T11:52:16;94496.53;;;17.33;23.11
61128;BME280;47013;42.664;23.242;2023-02-18T11:55:02;94488.31;;;17.33;23.30
61128;BME280;47013;42.664;23.242;2023-02-18T11:57:29;94484.72;;;17.49;23.29
61128;BME280;47013;42.664;23.242;2023-02-18T11:59:55;94484.28;;;17.51;23.75
61128;BME280;47013;42.664;23.242;2023-02-18T12:02:29;94490.59;;;18.02;23.53
61128;BME280;47013;42.664;23.242;2023-02-18T12:05:02;94478.59;;;18.09;23.21
61128;BME280;47013;42.664;23.242;2023-02-18T12:07:38;94475.66;;;18.16;23.45
61128;BME280;47013;42.664;23.242;2023-02-18T12:26:33;94470.34;;;18.34;23.28
61128;BME280;47013;42.664;23.242;2023-02-18T12:29:16;94479.47;;;18.31;23.60
61128;BME280;47013;42.664;23.242;2023-02-18T12:32:01;94462.13;;;18.09;23.46
61128;BME280;47013;42.664;23.242;2023-02-18T12:38:04;94465.47;;;17.91;23.75
61128;BME280;47013;42.664;23.242;2023-02-18T13:14:12;94435.19;;;15.79;27.48
61128;BME280;47013;42.664;23.242;2023-02-18T13:16:43;94440.56;;;15.82;27.71
61128;BME280;47013;42.664;23.242;2023-02-18T13:19:18;94446.69;;;15.70;28.04
61128;BME280;47013;42.664;23.242;2023-02-18T13:21:47;94444.31;;;15.72;28.43
61128;BME280;47013;42.664;23.242;2023-02-18T13:26:46;94434.75;;;15.80;28.50
61128;BME280;47013;42.664;23.242;2023-02-18T13:29:34;94439.94;;;15.75;28.03
61128;BME280;47013;42.664;23.242;2023-02-18T13:32:23;94433.91;;;15.67;28.77
61128;BME280;47013;42.664;23.242;2023-02-18T13:34:58;94434.31;;;15.66;28.37
61128;BME280;47013;42.664;23.242;2023-02-18T13:39:59;94429.72;;;15.43;28.57
61128;BME280;47013;42.664;23.242;2023-02-18T13:52:46;94426.88;;;15.30;29.89
61128;BME280;47013;42.664;23.242;2023-02-18T13:55:20;94421.63;;;15.19;29.78
61128;BME280;47013;42.664;23.242;2023-02-18T13:57:48;94424.78;;;15.18;30.33
61128;BME280;47013;42.664;23.242;2023-02-18T14:00:22;94419.50;;;15.11;30.02
61128;BME280;47013;42.664;23.242;2023-02-18T14:02:56;94419.06;;;15.12;30.35
61128;BME280;47013;42.664;23.242;2023-02-18T14:05:24;94424.69;;;15.05;30.77
61128;BME280;47013;42.664;23.242;2023-02-18T14:08:04;94413.31;;;15.07;30.68
61128;BME280;47013;42.664;23.242;2023-02-18T14:10:32;94424.69;;;15.05;30.78
61128;BME280;47013;42.664;23.242;2023-02-18T14:17:51;94431.88;;;14.95;30.80
61128;BME280;47013;42.664;23.242;2023-02-18T14:28:53;94430.41;;;14.71;32.54
61128;BME280;47013;42.664;23.242;2023-02-18T14:36:27;94421.38;;;14.31;34.45
61128;BME280;47013;42.664;23.242;2023-02-18T14:50:12;94440.59;;;13.77;36.89
61128;BME280;47013;42.664;23.242;2023-02-18T14:55:36;94436.81;;;13.44;37.38
61128;BME280;47013;42.664;23.242;2023-02-18T14:58:03;94419.03;;;13.36;37.66
61128;BME280;47013;42.664;23.242;2023-02-18T15:00:34;94415.63;;;13.28;38.36
61128;BME280;47013;42.664;23.242;2023-02-18T15:03:12;94425.41;;;13.25;38.37
61128;BME280;47013;42.664;23.242;2023-02-18T15:05:38;94414.97;;;13.20;38.48
61128;BME280;47013;42.664;23.242;2023-02-18T15:08:06;94417.69;;;13.20;38.53
61128;BME280;47013;42.664;23.242;2023-02-18T15:10:42;94411.94;;;13.11;38.30
61128;BME280;47013;42.664;23.242;2023-02-18T15:13:16;94415.09;;;13.10;38.31
61128;BME280;47013;42.664;23.242;2023-02-18T15:15:43;94414.31;;;13.09;38.34
61128;BME280;47013;42.664;23.242;2023-02-18T15:18:21;94412.47;;;13.03;37.81
61128;BME280;47013;42.664;23.242;2023-02-18T15:20:47;94415.91;;;13.07;37.11
61128;BME280;47013;42.664;23.242;2023-02-18T15:23:15;94422.59;;;13.02;37.06
61128;BME280;47013;42.664;23.242;2023-02-18T15:25:45;94418.34;;;12.97;37.33
61128;BME280;47013;42.664;23.242;2023-02-18T15:28:28;94409.53;;;12.90;38.43
61128;BME280;47013;42.664;23.242;2023-02-18T15:31:02;94398.34;;;12.81;38.65
61128;BME280;47013;42.664;23.242;2023-02-18T15:33:28;94398.75;;;12.79;39.50
61128;BME280;47013;42.664;23.242;2023-02-18T15:36:05;94402.44;;;12.65;39.12
61128;BME280;47013;42.664;23.242;2023-02-18T15:38:36;94395.88;;;12.59;39.55
61128;BME280;47013;42.664;23.242;2023-02-18T15:41:09;94394.44;;;12.51;39.36
61128;BME280;47013;42.664;23.242;2023-02-18T15:43:36;94401.13;;;12.43;39.17
61128;BME280;47013;42.664;23.242;2023-02-18T15:46:09;94399.25;;;12.36;39.38
61128;BME280;47013;42.664;23.242;2023-02-18T15:48:45;94393.44;;;12.38;38.77